Time;durP1;ratioP1;P1;durP2;ratioP2;P2;SDS_P1;SDS_P2;PMS_P1;PMS_P2;Temp;Humidity;BMP_temperature;BMP_pressure;BME280_temperature;BME280_humidity;BME280_pressure;Samples;Min_cycle;Max_cycle;Signal;HPM_P1;HPM_P2
2022/07/18 00:02:25;;;;;;;9.77;2.50;;;23.60;99.90;;;;;;5142662;27;20170;-80
2022/07/18 00:04:54;;;;;;;6.50;2.37;;;23.60;99.90;;;;;;5133156;27;20208;-82
2022/07/18 00:07:20;;;;;;;5.80;2.67;;;23.60;99.90;;;;;;5137096;27;20169;-80
2022/07/18 00:09:45;;;;;;;4.50;2.20;;;23.50;1.00;;;;;;5136891;27;20630;-82
2022/07/18 00:12:11;;;;;;;8.20;2.60;;;23.40;1.00;;;;;;5136440;27;20161;-81
2022/07/18 00:14:37;;;;;;;5.50;2.50;;;23.30;1.00;;;;;;5136573;27;20670;-82
2022/07/18 00:17:05;;;;;;;5.93;2.33;;;23.30;1.00;;;;;;5135960;27;20180;-82
2022/07/18 00:19:31;;;;;;;6.57;2.60;;;23.30;81.70;;;;;;5136146;27;20189;-80
2022/07/18 00:21:57;;;;;;;5.20;2.53;;;23.20;1.00;;;;;;5118138;27;20255;-81
2022/07/18 00:24:23;;;;;;;6.67;2.40;;;23.20;99.90;;;;;;5118133;27;20290;-80
2022/07/18 00:26:49;;;;;;;6.43;2.53;;;23.20;99.90;;;;;;5136219;27;20261;-83
2022/07/18 00:29:14;;;;;;;5.93;2.77;;;23.20;97.60;;;;;;5136503;27;20188;-81
2022/07/18 00:31:40;;;;;;;6.63;2.77;;;23.00;1.00;;;;;;5136582;27;20172;-80
2022/07/18 00:34:06;;;;;;;6.20;2.83;;;22.90;76.70;;;;;;5136093;27;20172;-81
2022/07/18 00:36:32;;;;;;;8.47;3.20;;;22.70;1.00;;;;;;5134618;27;20213;-82
2022/07/18 00:38:58;;;;;;;10.83;3.20;;;22.50;97.30;;;;;;5136348;27;20202;-83
2022/07/18 00:41:25;;;;;;;7.67;3.00;;;22.30;1.00;;;;;;5136082;27;20177;-80
2022/07/18 00:43:52;;;;;;;9.73;2.83;;;22.00;37.60;;;;;;5117965;27;20195;-82
2022/07/18 00:46:22;;;;;;;6.37;3.50;;;22.00;1.00;;;;;;5137011;27;20186;-80
2022/07/18 00:48:48;;;;;;;6.27;3.07;;;21.90;99.90;;;;;;5136471;27;20246;-82
2022/07/18 00:51:14;;;;;;;5.67;2.83;;;22.00;1.00;;;;;;5135309;27;20248;-82
2022/07/18 00:53:40;;;;;;;8.33;3.20;;;22.00;1.00;;;;;;5135816;27;20169;-82
2022/07/18 00:56:06;;;;;;;4.20;2.70;;;21.90;99.90;;;;;;5117371;27;20170;-82
2022/07/18 00:58:32;;;;;;;8.53;3.07;;;22.00;99.90;;;;;;5117487;27;20586;-82
2022/07/18 01:03:43;;;;;;;5.87;2.93;;;22.30;1.00;;;;;;5136297;27;20615;-82
2022/07/18 01:06:10;;;;;;;7.13;3.60;;;22.40;99.90;;;;;;5117540;27;20175;-79
2022/07/18 01:08:37;;;;;;;5.67;2.93;;;22.50;99.90;;;;;;5138985;27;20203;-79
2022/07/18 01:11:03;;;;;;;6.07;3.10;;;22.40;99.90;;;;;;5137976;27;20194;-81
2022/07/18 01:13:29;;;;;;;7.80;3.00;;;22.30;1.00;;;;;;5140970;27;20182;-79
2022/07/18 01:15:55;;;;;;;7.37;3.13;;;22.20;99.90;;;;;;5143766;27;20181;-80
2022/07/18 01:18:20;;;;;;;5.40;2.60;;;22.00;1.00;;;;;;5141553;27;20535;-80
2022/07/18 01:20:46;;;;;;;6.57;3.03;;;22.00;99.90;;;;;;5138877;27;20172;-80
2022/07/18 01:23:12;;;;;;;5.33;3.27;;;21.90;1.00;;;;;;5141338;27;20581;-81
2022/07/18 01:25:38;;;;;;;8.80;3.03;;;21.70;99.90;;;;;;5128503;27;20207;-79
2022/07/18 01:28:03;;;;;;;5.70;2.83;;;21.60;1.00;;;;;;5149999;27;20166;-79
2022/07/18 01:30:29;;;;;;;9.33;3.17;;;21.40;99.90;;;;;;5126927;27;20266;-79
2022/07/18 01:33:00;;;;;;;6.93;3.20;;;21.40;1.00;;;;;;5141954;27;20167;-79
2022/07/18 01:35:32;;;;;;;7.80;2.90;;;21.50;1.00;;;;;;5140486;27;20245;-81
2022/07/18 01:38:00;;;;;;;5.03;2.77;;;21.70;99.90;;;;;;5137698;27;20167;-80
2022/07/18 01:40:27;;;;;;;5.57;3.00;;;21.90;99.90;;;;;;5135201;27;20250;-82
2022/07/18 01:42:53;;;;;;;7.33;3.03;;;21.70;1.00;;;;;;5148714;27;20191;-81
2022/07/18 01:45:21;;;;;;;6.27;2.87;;;21.70;1.00;;;;;;5120703;27;20207;-80
2022/07/18 01:47:48;;;;;;;6.37;2.73;;;21.70;1.00;;;;;;5135612;27;20167;-81
2022/07/18 01:50:14;;;;;;;8.00;3.40;;;21.70;99.90;;;;;;5136085;27;20190;-80
2022/07/18 01:52:41;;;;;;;7.73;2.80;;;21.50;1.00;;;;;;5136893;27;20663;-79
2022/07/18 01:55:08;;;;;;;8.80;2.90;;;21.50;1.00;;;;;;5135133;27;20196;-81
2022/07/18 01:57:35;;;;;;;4.63;2.90;;;21.60;1.00;;;;;;5134987;27;20161;-80
2022/07/18 02:00:03;;;;;;;5.07;2.80;;;21.70;97.80;;;;;;5134584;27;20171;-81
2022/07/18 02:02:28;;;;;;;7.33;3.00;;;21.80;1.00;;;;;;5116326;27;20182;-80
2022/07/18 02:05:00;;;;;;;7.13;2.80;;;21.70;1.00;;;;;;5134776;27;20546;-78
2022/07/18 02:07:31;;;;;;;8.20;2.93;;;21.70;1.00;;;;;;5134805;27;20194;-81
2022/07/18 02:09:57;;;;;;;5.37;2.53;;;21.60;99.90;;;;;;5134709;27;20624;-81
2022/07/18 02:12:23;;;;;;;8.63;2.90;;;21.60;1.00;;;;;;5134450;27;20175;-81
2022/07/18 02:14:49;;;;;;;10.67;3.40;;;21.40;48.70;;;;;;5134097;27;20183;-80
2022/07/18 02:17:15;;;;;;;6.00;2.60;;;21.40;1.00;;;;;;5134390;27;20179;-81
2022/07/18 02:19:41;;;;;;;7.00;2.73;;;21.40;1.00;;;;;;5116006;28;20217;-80
2022/07/18 02:22:07;;;;;;;5.27;2.70;;;21.60;99.90;;;;;;5116389;28;20517;-82
2022/07/18 02:24:33;;;;;;;6.87;2.50;;;21.60;1.00;;;;;;5153926;28;20190;-79
2022/07/18 02:26:59;;;;;;;6.13;3.13;;;21.70;1.00;;;;;;5155382;27;20531;-79
2022/07/18 02:29:25;;;;;;;5.73;2.80;;;21.80;99.90;;;;;;5143894;27;20172;-78
2022/07/18 02:31:52;;;;;;;4.23;2.40;;;21.90;1.00;;;;;;5144251;27;20246;-79
2022/07/18 02:34:20;;;;;;;5.03;2.67;;;21.60;99.90;;;;;;5122730;27;20518;-80
2022/07/18 02:36:50;;;;;;;6.93;3.40;;;21.50;1.00;;;;;;5121639;27;20702;-81
2022/07/18 02:39:16;;;;;;;4.93;2.80;;;21.60;99.90;;;;;;5120182;27;20654;-81
2022/07/18 02:41:50;;;;;;;7.00;2.73;;;21.60;1.00;;;;;;5138482;27;20188;-82
2022/07/18 02:44:16;;;;;;;6.37;2.80;;;21.60;99.90;;;;;;5138041;27;20241;-81
2022/07/18 02:46:42;;;;;;;7.10;2.70;;;21.60;22.40;;;;;;5138388;27;20586;-80
2022/07/18 02:49:07;;;;;;;5.83;2.87;;;21.50;99.90;;;;;;5138820;27;20249;-80
2022/07/18 02:51:33;;;;;;;5.70;2.83;;;21.30;1.00;;;;;;5149254;27;20157;-80
2022/07/18 02:53:59;;;;;;;4.87;2.53;;;21.40;1.00;;;;;;5161006;27;20175;-79
2022/07/18 02:56:26;;;;;;;4.87;3.00;;;21.60;1.00;;;;;;5151403;27;20193;-81
2022/07/18 02:58:52;;;;;;;6.37;2.90;;;21.80;99.90;;;;;;5129460;27;20177;-80
2022/07/18 03:01:20;;;;;;;6.67;2.73;;;21.80;32.40;;;;;;5120462;27;20184;-81
2022/07/18 03:03:46;;;;;;;8.33;3.10;;;22.00;99.90;;;;;;5119725;27;20168;-79
2022/07/18 03:06:12;;;;;;;6.00;2.90;;;22.00;99.90;;;;;;5119254;27;20651;-81
2022/07/18 03:08:37;;;;;;;6.53;2.63;;;22.00;99.90;;;;;;5137786;27;20253;-79
2022/07/18 03:11:03;;;;;;;7.77;3.10;;;22.00;99.90;;;;;;5137958;27;20182;-79
2022/07/18 03:13:29;;;;;;;6.77;2.80;;;21.90;99.90;;;;;;5140321;27;20227;-80
2022/07/18 03:15:55;;;;;;;4.87;2.77;;;22.00;99.90;;;;;;5159174;27;20184;-79
2022/07/18 03:18:22;;;;;;;4.83;2.73;;;22.00;1.00;;;;;;5162678;27;20198;-81
2022/07/18 03:20:48;;;;;;;5.47;2.63;;;22.00;1.00;;;;;;5157630;27;20216;-78
2022/07/18 03:23:19;;;;;;;4.47;2.43;;;22.10;99.90;;;;;;5148297;27;20170;-82
2022/07/18 03:26:08;;;;;;;6.23;2.63;;;22.10;8.90;;;;;;5119306;27;20249;-81
2022/07/18 03:28:33;;;;;;;6.93;2.87;;;22.20;1.00;;;;;;5137832;27;20155;-82
2022/07/18 03:30:59;;;;;;;7.00;2.87;;;22.30;99.90;;;;;;5136425;27;20163;-81
2022/07/18 03:33:26;;;;;;;5.10;3.00;;;22.30;1.00;;;;;;5118718;27;20638;-79
2022/07/18 03:35:52;;;;;;;6.93;2.87;;;22.30;1.00;;;;;;5136894;27;20650;-80
2022/07/18 03:38:18;;;;;;;5.47;2.90;;;22.10;1.00;;;;;;5118342;27;20183;-81
2022/07/18 03:40:44;;;;;;;8.40;3.10;;;21.90;99.90;;;;;;5137082;27;20174;-81
2022/07/18 03:43:09;;;;;;;7.23;2.90;;;22.00;1.00;;;;;;5137175;27;20220;-81
2022/07/18 03:45:35;;;;;;;7.37;3.00;;;22.10;1.00;;;;;;5137121;27;20219;-81
2022/07/18 03:48:01;;;;;;;5.73;2.97;;;22.20;1.00;;;;;;5137201;27;20243;-81
2022/07/18 03:50:27;;;;;;;8.67;2.80;;;22.30;99.90;;;;;;5138536;27;20195;-80
2022/07/18 03:52:53;;;;;;;4.80;2.67;;;22.40;99.90;;;;;;5139348;27;20615;-83
2022/07/18 03:55:19;;;;;;;5.53;3.10;;;22.40;99.90;;;;;;5137951;27;20658;-78
2022/07/18 03:57:45;;;;;;;7.73;3.30;;;22.40;99.90;;;;;;5137022;27;20176;-80
2022/07/18 04:00:13;;;;;;;6.67;3.30;;;22.50;99.90;;;;;;5118241;27;20542;-81
2022/07/18 04:02:44;;;;;;;8.33;3.03;;;22.50;1.00;;;;;;5136785;27;20159;-78
2022/07/18 04:05:11;;;;;;;7.23;3.13;;;22.40;99.90;;;;;;5136340;27;20208;-80
2022/07/18 04:07:37;;;;;;;7.53;3.20;;;22.50;1.00;;;;;;5136839;27;20251;-80
2022/07/18 04:10:04;;;;;;;6.93;3.17;;;22.50;1.00;;;;;;5156903;27;20211;-80
2022/07/18 04:12:30;;;;;;;7.73;3.03;;;22.50;99.90;;;;;;5153043;27;20241;-82
2022/07/18 04:14:56;;;;;;;7.93;2.83;;;22.50;99.90;;;;;;5140419;27;20201;-81
2022/07/18 04:17:28;;;;;;;11.37;3.13;;;22.60;1.00;;;;;;5137376;27;20171;-82
2022/07/18 04:19:53;;;;;;;6.67;3.00;;;22.50;99.90;;;;;;5137398;27;20206;-82
2022/07/18 04:22:19;;;;;;;7.00;2.60;;;22.60;1.00;;;;;;5145106;27;20172;-82
2022/07/18 04:24:44;;;;;;;7.97;3.07;;;22.60;57.50;;;;;;5151621;27;20200;-82
2022/07/18 04:27:10;;;;;;;6.17;2.67;;;22.60;99.90;;;;;;5129031;27;20665;-80
2022/07/18 04:29:37;;;;;;;6.43;3.33;;;22.60;99.90;;;;;;5146263;27;20538;-80
2022/07/18 04:32:08;;;;;;;6.10;2.57;;;22.60;1.00;;;;;;5140156;27;20153;-80
2022/07/18 04:34:35;;;;;;;8.37;3.03;;;22.70;1.00;;;;;;5137927;27;20611;-83
2022/07/18 04:37:01;;;;;;;6.37;2.70;;;22.70;99.90;;;;;;5136472;27;20244;-82
2022/07/18 04:39:27;;;;;;;4.63;2.93;;;22.70;1.00;;;;;;5117764;27;20698;-80
2022/07/18 04:41:52;;;;;;;8.20;2.67;;;22.60;1.00;;;;;;5136219;27;20172;-83
2022/07/18 04:44:18;;;;;;;5.23;3.07;;;22.70;1.00;;;;;;5135511;27;20200;-82
2022/07/18 04:46:44;;;;;;;4.47;2.87;;;22.90;99.90;;;;;;5136030;27;20645;-82
2022/07/18 04:49:09;;;;;;;8.37;2.80;;;22.90;99.90;;;;;;5116446;27;20254;-81
2022/07/18 04:51:35;;;;;;;6.57;3.07;;;23.00;99.90;;;;;;5135955;27;20572;-81
2022/07/18 04:54:01;;;;;;;6.60;2.90;;;23.00;99.90;;;;;;5135902;27;20168;-82
2022/07/18 04:56:26;;;;;;;8.90;2.63;;;22.90;1.00;;;;;;5136043;27;20259;-81
2022/07/18 04:58:52;;;;;;;8.60;3.30;;;22.90;1.00;;;;;;5139018;27;20159;-82
2022/07/18 05:01:19;;;;;;;7.03;3.10;;;22.90;99.90;;;;;;5151919;27;20198;-81
2022/07/18 05:03:46;;;;;;;7.47;2.97;;;22.80;1.00;;;;;;5137203;27;20167;-81
2022/07/18 05:06:12;;;;;;;6.67;3.20;;;22.90;99.90;;;;;;5138943;27;20172;-81
2022/07/18 05:08:38;;;;;;;7.87;3.07;;;22.90;99.90;;;;;;5140900;27;20535;-80
2022/07/18 05:11:04;;;;;;;6.70;3.33;;;23.00;99.90;;;;;;5144118;27;20512;-78
2022/07/18 05:13:29;;;;;;;5.70;3.40;;;23.00;99.90;;;;;;5121273;27;20203;-80
2022/07/18 05:15:56;;;;;;;6.50;3.30;;;23.10;99.90;;;;;;5135988;27;20191;-77
2022/07/18 05:18:22;;;;;;;5.27;2.80;;;23.00;99.90;;;;;;5132989;27;20240;-79
2022/07/18 05:20:48;;;;;;;7.63;2.83;;;23.00;99.90;;;;;;5116914;27;20171;-77
2022/07/18 05:23:19;;;;;;;7.83;3.30;;;23.10;1.00;;;;;;5135157;27;20178;-81
2022/07/18 05:25:45;;;;;;;8.40;3.13;;;23.30;99.90;;;;;;5116614;27;20626;-80
2022/07/18 05:28:11;;;;;;;10.00;3.27;;;23.40;1.00;;;;;;5135020;27;20193;-77
2022/07/18 05:30:36;;;;;;;7.00;3.20;;;23.60;99.90;;;;;;5135052;27;20211;-77
2022/07/18 05:33:02;;;;;;;10.87;3.50;;;23.80;1.00;;;;;;5134271;27;20168;-77
2022/07/18 05:35:28;;;;;;;9.83;3.30;;;23.90;99.90;;;;;;5134447;27;20168;-78
2022/07/18 05:37:53;;;;;;;7.00;3.07;;;23.90;1.00;;;;;;5134791;27;20803;-77
2022/07/18 05:40:19;;;;;;;9.93;3.53;;;23.90;1.00;;;;;;5134259;27;20531;-77
2022/07/18 05:42:45;;;;;;;9.00;3.43;;;24.00;99.90;;;;;;5133169;27;20165;-79
2022/07/18 05:45:11;;;;;;;7.67;3.20;;;24.10;99.90;;;;;;5133518;27;20751;-80
2022/07/18 05:47:38;;;;;;;7.07;3.37;;;24.20;99.90;;;;;;5134504;27;20244;-80
2022/07/18 05:50:04;;;;;;;7.37;3.23;;;24.20;99.90;;;;;;5135061;27;20239;-82
2022/07/18 05:52:30;;;;;;;13.10;3.23;;;24.20;99.90;;;;;;5135535;27;20173;-81
2022/07/18 05:54:56;;;;;;;5.43;2.73;;;24.30;98.20;;;;;;5134656;27;20177;-78
2022/07/18 05:57:22;;;;;;;7.47;3.00;;;24.30;1.00;;;;;;5134810;27;20257;-78
2022/07/18 05:59:47;;;;;;;6.10;2.93;;;24.30;1.00;;;;;;5134735;27;20175;-77
2022/07/18 06:02:13;;;;;;;9.83;3.13;;;24.40;1.00;;;;;;5135594;27;20170;-81
2022/07/18 06:04:39;;;;;;;8.93;3.40;;;24.40;1.00;;;;;;5134431;27;20565;-81
2022/07/18 06:07:04;;;;;;;7.40;2.53;;;24.40;1.00;;;;;;5136533;27;20210;-79
2022/07/18 06:09:30;;;;;;;6.67;3.23;;;24.40;1.00;;;;;;5140485;27;20173;-81
2022/07/18 06:11:59;;;;;;;7.37;3.70;;;24.10;1.00;;;;;;5135900;27;20165;-76
2022/07/18 06:14:26;;;;;;;6.67;3.27;;;23.90;1.00;;;;;;5140513;27;20177;-79
2022/07/18 06:16:53;;;;;;;6.87;3.47;;;23.80;99.90;;;;;;5157134;27;20156;-79
2022/07/18 06:19:18;;;;;;;8.70;3.13;;;23.70;99.90;;;;;;5155585;27;20193;-79
2022/07/18 06:21:47;;;;;;;6.17;3.23;;;23.70;99.90;;;;;;5148645;27;20152;-79
2022/07/18 06:24:13;;;;;;;5.90;3.03;;;23.80;99.90;;;;;;5142395;28;20222;-80
2022/07/18 06:26:42;;;;;;;6.87;3.33;;;23.90;99.90;;;;;;5137266;28;20177;-80
2022/07/18 06:29:13;;;;;;;7.80;3.30;;;23.90;99.90;;;;;;5135652;28;20162;-82
2022/07/18 06:31:39;;;;;;;6.20;3.47;;;24.00;84.60;;;;;;5135226;28;20539;-81
2022/07/18 06:34:05;;;;;;;4.83;3.17;;;24.00;92.40;;;;;;5136101;28;20219;-75
2022/07/18 06:36:32;;;;;;;9.00;3.63;;;24.10;48.00;;;;;;5150502;28;20170;-77
2022/07/18 06:38:58;;;;;;;8.43;3.70;;;24.20;56.30;;;;;;5135014;28;20189;-76
2022/07/18 06:41:24;;;;;;;9.07;3.27;;;24.30;44.40;;;;;;5152679;27;20185;-79
2022/07/18 06:43:50;;;;;;;6.03;3.17;;;24.40;27.80;;;;;;5135793;28;20170;-81
2022/07/18 06:46:32;;;;;;;9.73;3.20;;;24.50;1.00;;;;;;5135307;28;20831;-77
2022/07/18 06:48:58;;;;;;;8.03;3.40;;;24.50;1.00;;;;;;5116293;28;20194;-78
2022/07/18 06:51:24;;;;;;;10.00;3.47;;;24.60;1.00;;;;;;5135747;28;20657;-80
2022/07/18 06:53:51;;;;;;;7.93;3.50;;;24.70;1.00;;;;;;5150989;27;20230;-81
2022/07/18 06:56:17;;;;;;;13.03;3.90;;;24.80;1.00;;;;;;5162593;27;20169;-81
2022/07/18 06:58:48;;;;;;;6.97;3.27;;;25.00;1.00;;;;;;5137183;28;20201;-81
2022/07/18 07:01:24;;;;;;;7.60;3.40;;;25.10;1.00;;;;;;5117138;28;20158;-82
2022/07/18 07:03:51;;;;;;;8.07;3.50;;;25.00;1.00;;;;;;5126950;27;20173;-82
2022/07/18 07:06:16;;;;;;;8.10;3.33;;;25.20;1.00;;;;;;5135924;28;20270;-83
2022/07/18 07:08:43;;;;;;;9.80;3.70;;;25.30;1.00;;;;;;5146787;28;20162;-83
2022/07/18 07:11:09;;;;;;;13.07;3.53;;;25.40;1.00;;;;;;5151511;28;20221;-82
2022/07/18 07:13:35;;;;;;;10.37;3.77;;;25.50;1.00;;;;;;5159259;27;20183;-82
2022/07/18 07:16:01;;;;;;;11.23;3.53;;;25.60;1.00;;;;;;5161831;27;20205;-81
2022/07/18 07:18:27;;;;;;;5.47;3.10;;;25.40;1.00;;;;;;5152526;27;20186;-83
2022/07/18 07:21:08;;;;;;;8.93;3.73;;;25.50;1.00;;;;;;5136457;27;20166;-82
2022/07/18 07:23:36;;;;;;;9.60;2.97;;;25.40;1.00;;;;;;5099234;28;20662;-84
2022/07/18 07:26:02;;;;;;;11.57;3.77;;;25.50;1.00;;;;;;5117257;28;20202;-84
2022/07/18 07:28:30;;;;;;;13.67;3.90;;;25.50;1.00;;;;;;5117531;28;20167;-83
2022/07/18 07:30:55;;;;;;;8.67;3.23;;;25.60;1.00;;;;;;5098492;28;20227;-82
2022/07/18 07:33:21;;;;;;;8.30;3.90;;;25.70;1.00;;;;;;5099997;28;20167;-83
2022/07/18 07:35:47;;;;;;;7.50;3.60;;;25.70;1.00;;;;;;5117600;28;20247;-81
2022/07/18 07:38:18;;;;;;;8.17;3.80;;;25.90;1.00;;;;;;5100635;28;20631;-80
2022/07/18 07:40:43;;;;;;;7.97;3.30;;;26.10;99.90;;;;;;5100578;28;20194;-82
2022/07/18 07:43:12;;;;;;;8.97;3.10;;;26.30;99.90;;;;;;5118409;28;20220;-82
2022/07/18 07:45:38;;;;;;;8.80;3.20;;;26.40;99.90;;;;;;5118129;28;20209;-83
2022/07/18 07:48:05;;;;;;;9.73;3.20;;;26.50;99.90;;;;;;5117898;28;20249;-82
2022/07/18 07:50:31;;;;;;;6.63;3.13;;;26.50;99.90;;;;;;5098831;28;20174;-84
2022/07/18 07:52:58;;;;;;;9.43;3.33;;;26.50;99.90;;;;;;5116670;28;20163;-82
2022/07/18 07:55:23;;;;;;;7.40;3.07;;;26.50;99.90;;;;;;5098332;28;20262;-83
2022/07/18 07:57:49;;;;;;;7.23;2.43;;;26.70;99.90;;;;;;5115093;28;20604;-83
2022/07/18 08:00:15;;;;;;;6.37;2.43;;;26.70;92.60;;;;;;5117008;28;20262;-81
2022/07/18 08:02:57;;;;;;;10.07;2.40;;;26.70;90.90;;;;;;5116805;28;20676;-82
2022/07/18 08:05:23;;;;;;;8.50;3.07;;;26.60;99.90;;;;;;5116651;28;20259;-83
2022/07/18 08:07:49;;;;;;;6.93;2.90;;;26.80;99.90;;;;;;5116152;28;20170;-82
2022/07/18 08:10:16;;;;;;;7.93;3.10;;;27.00;33.30;;;;;;5116780;28;20171;-83
2022/07/18 08:12:42;;;;;;;11.02;3.30;;;27.10;20.90;;;;;;5098407;28;20270;-83
2022/07/18 08:15:08;;;;;;;11.10;3.00;;;27.30;1.00;;;;;;5099507;28;20278;-81
2022/07/18 08:17:34;;;;;;;11.57;3.33;;;27.40;1.00;;;;;;5131646;28;20169;-83
2022/07/18 08:20:00;;;;;;;9.27;2.80;;;27.60;1.00;;;;;;5127636;28;20188;-83
2022/07/18 08:22:27;;;;;;;9.87;3.20;;;27.60;1.00;;;;;;5135921;28;20172;-82
2022/07/18 08:24:54;;;;;;;14.63;3.37;;;27.70;1.00;;;;;;5117449;28;20206;-82
2022/07/18 08:27:20;;;;;;;18.70;3.73;;;27.90;1.00;;;;;;5124147;28;20149;-83
2022/07/18 08:29:45;;;;;;;10.55;3.38;;;28.00;1.00;;;;;;5121447;28;20535;-81
2022/07/18 08:32:13;;;;;;;10.57;2.70;;;28.10;1.00;;;;;;5115655;28;20173;-82
2022/07/18 08:34:38;;;;;;;10.77;3.40;;;27.90;1.00;;;;;;5116431;28;20179;-83
2022/07/18 08:37:05;;;;;;;12.03;2.80;;;28.00;1.00;;;;;;5117439;28;20621;-83
2022/07/18 08:39:30;;;;;;;8.20;2.63;;;28.00;1.00;;;;;;5115853;28;20658;-84
2022/07/18 08:41:59;;;;;;;8.80;2.70;;;27.90;1.00;;;;;;5116288;28;20174;-84
2022/07/18 08:44:29;;;;;;;7.10;2.57;;;28.10;1.00;;;;;;5097951;28;20663;-82
2022/07/18 08:46:57;;;;;;;7.72;2.72;;;28.10;1.00;;;;;;5116095;28;20178;-84
2022/07/18 08:49:23;;;;;;;5.50;2.40;;;28.20;1.00;;;;;;5115800;28;20164;-83
2022/07/18 08:51:51;;;;;;;7.85;2.65;;;28.30;99.90;;;;;;5121968;27;20201;-83
2022/07/18 08:54:17;;;;;;;8.90;2.35;;;28.40;99.90;;;;;;5129127;27;20686;-82
2022/07/18 08:56:43;;;;;;;8.17;2.63;;;28.50;99.90;;;;;;5136108;27;20170;-83
2022/07/18 08:59:08;;;;;;;5.90;2.40;;;28.70;99.90;;;;;;5140652;27;20208;-83
2022/07/18 09:01:34;;;;;;;5.50;2.20;;;28.70;99.90;;;;;;5127721;27;20553;-81
2022/07/18 09:04:16;;;;;;;4.70;2.17;;;28.80;99.90;;;;;;5142029;27;20184;-84
2022/07/18 09:06:46;;;;;;;5.68;2.63;;;28.80;99.90;;;;;;5141885;27;20218;-84
2022/07/18 09:09:14;;;;;;;8.73;2.30;;;28.90;99.90;;;;;;5139277;27;20166;-82
2022/07/18 09:12:04;;;;;;;5.15;2.13;;;29.00;99.90;;;;;;5138179;27;20238;-82
2022/07/18 09:14:41;;;;;;;5.18;2.30;;;29.10;99.90;;;;;;5127394;27;20186;-83
2022/07/18 09:17:09;;;;;;;4.85;2.08;;;29.20;99.90;;;;;;5136406;27;20294;-82
2022/07/18 09:19:36;;;;;;;5.30;2.05;;;29.50;99.90;;;;;;5136428;27;20182;-82
2022/07/18 09:22:32;;;;;;;5.80;2.10;;;29.60;99.90;;;;;;5136813;27;20173;-83
2022/07/18 09:25:07;;;;;;;7.35;2.47;;;29.50;99.90;;;;;;5118946;27;20758;-82
2022/07/18 09:27:45;;;;;;;8.00;2.17;;;29.60;99.90;;;;;;5119232;27;20158;-83
2022/07/18 09:30:29;;;;;;;3.70;1.90;;;29.60;99.90;;;;;;5154370;27;20203;-80
2022/07/18 09:33:06;;;;;;;4.63;1.77;;;29.70;99.90;;;;;;5156860;27;20182;-83
2022/07/18 09:35:37;;;;;;;4.43;2.60;;;29.90;99.90;;;;;;5137483;27;20162;-83
2022/07/18 09:38:14;;;;;;;4.68;2.28;;;29.90;99.90;;;;;;5151038;27;20162;-83
2022/07/18 09:40:51;;;;;;;6.65;1.63;;;29.90;99.90;;;;;;5136457;27;20637;-84
2022/07/18 09:43:20;;;;;;;5.15;1.50;;;30.00;99.90;;;;;;5117299;27;20598;-83
2022/07/18 09:45:48;;;;;;;4.28;1.88;;;30.20;99.90;;;;;;5129452;27;20689;-83
2022/07/18 09:48:18;;;;;;;3.10;1.70;;;30.30;99.90;;;;;;5125728;27;20219;-83
2022/07/18 09:51:05;;;;;;;3.90;1.58;;;30.40;99.90;;;;;;5103589;28;20163;-82
2022/07/18 09:53:32;;;;;;;4.55;1.88;;;30.50;99.90;;;;;;5138562;28;20177;-80
2022/07/18 09:56:07;;;;;;;4.10;1.98;;;30.60;99.90;;;;;;5138144;28;20151;-82
2022/07/18 09:58:56;;;;;;;3.80;1.60;;;30.80;99.90;;;;;;5132861;28;20155;-84
2022/07/18 10:01:23;;;;;;;4.35;1.52;;;30.90;99.90;;;;;;5115684;28;20257;-85
2022/07/18 10:03:52;;;;;;;4.47;1.50;;;31.00;99.90;;;;;;5115531;28;20159;-82
2022/07/18 10:06:18;;;;;;;3.88;1.80;;;31.00;99.90;;;;;;5116804;28;20558;-82
2022/07/18 10:08:45;;;;;;;3.53;1.40;;;31.10;99.90;;;;;;5115275;28;20348;-83
2022/07/18 10:11:10;;;;;;;4.03;1.40;;;31.40;99.90;;;;;;5096605;28;20202;-84
2022/07/18 10:13:37;;;;;;;2.97;1.85;;;31.40;99.90;;;;;;5126229;27;20210;-84
2022/07/18 10:16:04;;;;;;;2.28;1.27;;;31.50;95.40;;;;;;5117082;28;20174;-84
2022/07/18 10:18:33;;;;;;;3.20;1.60;;;31.70;58.90;;;;;;5121408;28;20266;-83
2022/07/18 10:21:19;;;;;;;4.82;1.38;;;31.90;50.00;;;;;;5120303;28;20163;-83
2022/07/18 10:23:46;;;;;;;3.83;2.13;;;31.90;29.30;;;;;;5117395;28;20162;-82
2022/07/18 10:26:24;;;;;;;2.92;1.38;;;31.80;27.90;;;;;;5115709;28;20229;-83
2022/07/18 10:28:55;;;;;;;4.00;1.40;;;31.60;12.90;;;;;;5116152;28;20232;-81
2022/07/18 10:31:27;;;;;;;3.30;1.77;;;31.20;11.70;;;;;;5115400;28;20171;-82
2022/07/18 10:34:10;;;;;;;3.55;1.48;;;31.20;20.80;;;;;;5114791;28;20163;-82
2022/07/18 10:37:04;;;;;;;2.80;1.42;;;31.40;19.70;;;;;;5098013;28;20531;-81
2022/07/18 10:39:38;;;;;;;3.42;1.63;;;31.80;9.90;;;;;;5119088;28;20182;-82
2022/07/18 10:42:04;;;;;;;5.25;1.52;;;32.00;8.40;;;;;;5116880;28;20669;-82
2022/07/18 10:44:29;;;;;;;2.80;1.58;;;32.00;5.20;;;;;;5115075;28;20289;-82
2022/07/18 10:49:52;;;;;;;4.20;1.70;;;32.30;1.00;;;;;;5119249;28;20630;-82
2022/07/18 10:52:26;;;;;;;4.28;1.17;;;32.60;1.00;;;;;;5100765;28;20167;-83
2022/07/18 10:57:49;;;;;;;4.82;1.60;;;32.80;1.00;;;;;;5139583;27;20570;-82
2022/07/18 11:00:25;;;;;;;5.88;1.98;;;32.80;1.00;;;;;;5120705;27;20174;-83
2022/07/18 11:03:00;;;;;;;2.47;1.42;;;32.90;1.00;;;;;;5138759;27;20158;-84
2022/07/18 11:05:26;;;;;;;3.58;1.40;;;32.80;1.00;;;;;;5120105;27;20313;-84
2022/07/18 11:07:58;;;;;;;3.15;1.83;;;32.60;1.00;;;;;;5139740;27;20186;-83
2022/07/18 11:10:54;;;;;;;5.25;1.33;;;32.50;1.00;;;;;;5139036;27;20237;-85
2022/07/18 11:16:12;;;;;;;4.15;1.60;;;32.50;1.00;;;;;;5138846;27;20177;-83
2022/07/18 11:18:46;;;;;;;3.78;1.67;;;32.20;1.00;;;;;;5120155;27;20186;-83
2022/07/18 11:21:22;;;;;;;2.95;1.60;;;32.40;1.00;;;;;;5138628;27;20241;-83
2022/07/18 11:23:51;;;;;;;2.80;1.48;;;32.50;1.00;;;;;;5138483;27;20249;-83
2022/07/18 11:26:21;;;;;;;5.97;1.52;;;32.70;1.00;;;;;;5134275;27;20198;-84
2022/07/18 11:28:51;;;;;;;3.67;1.80;;;32.60;1.00;;;;;;5121879;27;20165;-83
2022/07/18 11:31:16;;;;;;;2.65;1.52;;;32.40;1.00;;;;;;5139477;27;20162;-83
2022/07/18 11:33:48;;;;;;;8.85;1.48;;;32.40;1.00;;;;;;5137664;27;20523;-82
2022/07/18 11:36:17;;;;;;;5.70;1.50;;;32.40;1.00;;;;;;5138901;27;20170;-83
2022/07/18 11:38:51;;;;;;;2.67;1.50;;;32.50;1.00;;;;;;5139102;27;20218;-83
2022/07/18 11:41:18;;;;;;;7.28;1.60;;;32.50;1.00;;;;;;5123715;27;20208;-82
2022/07/18 11:43:45;;;;;;;4.57;1.65;;;32.80;1.00;;;;;;5140960;27;20181;-83
2022/07/18 11:46:13;;;;;;;1.90;1.30;;;32.90;1.00;;;;;;5146817;27;20212;-83
2022/07/18 11:48:40;;;;;;;3.50;1.77;;;32.80;1.00;;;;;;5155506;27;20176;-83
2022/07/18 11:51:10;;;;;;;4.55;1.40;;;32.50;1.00;;;;;;5149089;27;20184;-83
2022/07/18 11:53:41;;;;;;;4.63;1.30;;;32.50;1.00;;;;;;5147040;27;20166;-84
2022/07/18 11:56:07;;;;;;;4.75;1.80;;;32.60;1.00;;;;;;5149512;27;20162;-84
2022/07/18 11:58:38;;;;;;;2.25;1.50;;;32.90;1.00;;;;;;5149138;27;20165;-84
2022/07/18 12:01:04;;;;;;;3.63;1.35;;;32.90;1.00;;;;;;5121681;27;20265;-83
2022/07/18 12:03:33;;;;;;;4.50;1.30;;;33.10;1.00;;;;;;5120454;27;20212;-83
2022/07/18 12:06:08;;;;;;;4.85;2.05;;;33.20;1.00;;;;;;5137852;27;20205;-84
2022/07/18 12:08:35;;;;;;;16.65;11.60;;;33.00;1.00;;;;;;5119605;27;20226;-83
2022/07/18 12:11:06;;;;;;;5.03;1.70;;;32.90;1.00;;;;;;5152378;27;20167;-84
2022/07/18 12:13:45;;;;;;;3.70;1.65;;;32.70;1.00;;;;;;5158983;27;20163;-83
2022/07/18 12:16:33;;;;;;;3.40;1.48;;;32.50;1.00;;;;;;5146748;27;20174;-83
2022/07/18 12:19:24;;;;;;;5.30;1.50;;;32.40;1.00;;;;;;5139464;27;20178;-83
2022/07/18 12:22:04;;;;;;;6.65;1.70;;;32.60;1.00;;;;;;5118618;27;20158;-84
2022/07/18 12:24:39;;;;;;;5.88;1.38;;;32.90;1.00;;;;;;5136891;27;20588;-83
2022/07/18 12:27:14;;;;;;;4.63;1.75;;;33.10;1.00;;;;;;5118439;27;20169;-84
2022/07/18 12:30:19;;;;;;;7.03;1.60;;;33.30;1.00;;;;;;5136781;27;20256;-83
2022/07/18 12:32:56;;;;;;;5.30;1.70;;;33.60;1.00;;;;;;5151429;27;20236;-82
2022/07/18 12:35:32;;;;;;;4.28;1.75;;;33.80;1.00;;;;;;5152588;27;20158;-83
2022/07/18 12:38:12;;;;;;;2.72;1.35;;;33.90;1.00;;;;;;5143265;27;20170;-83
2022/07/18 12:40:46;;;;;;;3.20;1.42;;;34.10;1.00;;;;;;5143619;27;20216;-84
2022/07/18 12:43:15;;;;;;;4.72;1.65;;;34.20;1.00;;;;;;5160796;27;20139;-83
2022/07/18 12:45:42;;;;;;;3.67;1.73;;;34.40;1.00;;;;;;5156643;27;20240;-83
2022/07/18 12:48:10;;;;;;;2.97;1.65;;;34.70;1.00;;;;;;5152779;27;20158;-82
2022/07/18 12:50:44;;;;;;;4.97;1.75;;;34.60;1.00;;;;;;5140787;27;20529;-84
2022/07/18 12:53:10;;;;;;;5.32;1.50;;;34.50;1.00;;;;;;5125442;27;20166;-84
2022/07/18 12:55:37;;;;;;;5.00;1.27;;;34.50;1.00;;;;;;5137279;27;20170;-83
2022/07/18 12:58:03;;;;;;;3.42;1.48;;;34.40;1.00;;;;;;5125961;27;20542;-83
2022/07/18 13:00:30;;;;;;;3.88;1.63;;;34.60;1.00;;;;;;5157145;27;20184;-83
2022/07/18 13:02:57;;;;;;;4.03;1.50;;;34.50;1.00;;;;;;5160129;27;20170;-83
2022/07/18 13:05:28;;;;;;;3.30;1.50;;;34.40;1.00;;;;;;5156503;27;20205;-83
2022/07/18 13:07:54;;;;;;;4.63;2.17;;;34.20;1.00;;;;;;5152775;27;20159;-83
2022/07/18 13:10:20;;;;;;;3.33;1.80;;;34.10;1.00;;;;;;5160046;27;20178;-84